createdAt,value
2022-08-03T00:02:20.600Z,98843.16
2022-08-03T00:04:48.103Z,98846.70
2022-08-03T00:07:15.661Z,98840.95
2022-08-03T00:09:43.122Z,98839.95
2022-08-03T00:12:10.576Z,98846.50
2022-08-03T00:14:37.853Z,98849.58
2022-08-03T00:17:05.188Z,98849.58
2022-08-03T00:19:32.480Z,98849.42
2022-08-03T00:21:59.893Z,98844.42
2022-08-03T00:24:27.252Z,98844.95
2022-08-03T00:26:57.163Z,98844.16
2022-08-03T00:29:24.421Z,98847.81
2022-08-03T00:31:59.575Z,98850.30
2022-08-03T00:34:35.231Z,98851.83
2022-08-03T00:37:04.116Z,98846.83
2022-08-03T00:39:31.548Z,98853.23
2022-08-03T00:42:03.537Z,98856.33
2022-08-03T00:44:30.881Z,98857.80
2022-08-03T00:46:59.297Z,98853.61
2022-08-03T00:49:28.434Z,98854.27
2022-08-03T00:51:57.011Z,98853.23
2022-08-03T00:54:24.286Z,98856.42
2022-08-03T00:56:59.762Z,98858.49
2022-08-03T00:59:28.222Z,98856.35
2022-08-03T01:01:55.454Z,98861.02
2022-08-03T01:04:23.016Z,98858.47
2022-08-03T01:07:03.412Z,98860.94
2022-08-03T01:10:00.215Z,98862.01
2022-08-03T01:13:01.680Z,98861.65
2022-08-03T01:15:32.087Z,98856.89
2022-08-03T01:18:04.061Z,98859.20
2022-08-03T01:20:34.181Z,98855.69
2022-08-03T01:23:05.300Z,98857.58
2022-08-03T01:25:54.563Z,98860.96
2022-08-03T01:28:59.231Z,98860.69
2022-08-03T01:31:29.298Z,98859.80
2022-08-03T01:33:59.768Z,98860.50
2022-08-03T01:36:30.638Z,98859.84
2022-08-03T01:39:01.662Z,98859.51
2022-08-03T01:41:43.339Z,98858.00
2022-08-03T01:44:30.250Z,98854.59
2022-08-03T01:47:02.007Z,98854.52
2022-08-03T01:49:30.953Z,98849.58
2022-08-03T01:52:04.165Z,98847.64
2022-08-03T01:54:40.776Z,98843.19
2022-08-03T01:57:08.014Z,98844.20
2022-08-03T01:59:35.981Z,98848.99
2022-08-03T02:02:29.892Z,98853.25
2022-08-03T02:04:53.423Z,98848.07
2022-08-03T02:07:26.638Z,98848.73
2022-08-03T02:09:54.175Z,98851.90
2022-08-03T02:12:22.963Z,98849.64
2022-08-03T02:14:50.330Z,98845.41
2022-08-03T02:17:17.676Z,98848.83
2022-08-03T02:19:45.136Z,98846.79
2022-08-03T02:22:13.473Z,98849.64
2022-08-03T02:24:41.271Z,98854.63
2022-08-03T02:27:18.484Z,98853.73
2022-08-03T02:29:48.866Z,98850.42
2022-08-03T02:32:18.234Z,98852.52
2022-08-03T02:34:47.892Z,98856.77
2022-08-03T02:37:15.355Z,98855.63
2022-08-03T02:39:43.421Z,98856.48
2022-08-03T02:42:12.215Z,98852.34
2022-08-03T02:44:40.487Z,98849.93
2022-08-03T02:47:09.809Z,98852.59
2022-08-03T02:49:50.405Z,98852.89
2022-08-03T02:52:23.397Z,98855.81
2022-08-03T02:54:53.159Z,98856.69
2022-08-03T02:57:20.922Z,98850.00
2022-08-03T02:59:48.274Z,98849.58
2022-08-03T03:02:17.237Z,98850.29
2022-08-03T03:05:52.905Z,98847.60
2022-08-03T03:07:50.477Z,98842.67
2022-08-03T03:10:22.400Z,98840.70
2022-08-03T03:12:52.555Z,98839.23
2022-08-03T03:15:20.013Z,98842.64
2022-08-03T03:17:49.112Z,98847.52
2022-08-03T03:20:16.422Z,98849.23
2022-08-03T03:22:59.284Z,98852.39
2022-08-03T03:25:26.742Z,98854.33
2022-08-03T03:27:54.808Z,98850.42
2022-08-03T03:30:22.162Z,98857.07
2022-08-03T03:32:50.705Z,98856.56
2022-08-03T03:35:19.745Z,98851.76
2022-08-03T03:37:47.125Z,98850.65
2022-08-03T03:40:14.760Z,98848.69
2022-08-03T03:42:42.208Z,98853.05
2022-08-03T03:45:10.383Z,98860.41
2022-08-03T03:47:39.688Z,98869.45
2022-08-03T03:50:07.964Z,98872.70
2022-08-03T03:52:35.320Z,98869.47
2022-08-03T03:55:02.718Z,98877.45
2022-08-03T03:57:30.127Z,98875.76
2022-08-03T03:59:57.379Z,98872.80
2022-08-03T04:02:25.984Z,98876.36
2022-08-03T04:05:12.019Z,98872.05
2022-08-03T04:08:30.919Z,98873.75
2022-08-03T04:11:13.839Z,98882.05
2022-08-03T04:14:01.768Z,98880.98
2022-08-03T04:16:31.651Z,98882.92
2022-08-03T04:19:06.724Z,98879.12
2022-08-03T04:21:34.080Z,98881.41
2022-08-03T04:24:02.929Z,98881.36
2022-08-03T04:26:34.999Z,98882.34
2022-08-03T04:29:02.492Z,98889.63
2022-08-03T04:31:29.958Z,98890.95
2022-08-03T04:33:57.516Z,98896.40
2022-08-03T04:36:27.531Z,98894.96
2022-08-03T04:38:59.800Z,98893.77
2022-08-03T04:41:27.401Z,98894.40
2022-08-03T04:43:59.132Z,98891.68
2022-08-03T04:46:27.702Z,98894.04
2022-08-03T04:48:56.170Z,98891.10
2022-08-03T04:51:23.636Z,98888.27
2022-08-03T04:53:50.886Z,98885.65
2022-08-03T04:56:18.567Z,98889.67
2022-08-03T04:58:46.013Z,98891.73
2022-08-03T05:01:13.421Z,98891.31
2022-08-03T05:03:40.923Z,98894.80
2022-08-03T05:06:11.062Z,98896.44
2022-08-03T05:08:46.244Z,98898.55
2022-08-03T05:11:16.945Z,98897.29
2022-08-03T05:13:45.288Z,98898.39
2022-08-03T05:16:14.101Z,98897.10
2022-08-03T05:18:44.930Z,98900.33
2022-08-03T05:21:15.030Z,98903.48
2022-08-03T05:23:42.388Z,98905.38
2022-08-03T05:26:12.116Z,98906.47
2022-08-03T05:28:39.863Z,98908.09
2022-08-03T05:31:21.210Z,98905.94
2022-08-03T05:33:49.669Z,98904.12
2022-08-03T05:36:17.100Z,98903.70
2022-08-03T05:38:44.437Z,98914.73
2022-08-03T05:41:22.197Z,98918.66
2022-08-03T05:43:54.700Z,98922.89
2022-08-03T05:46:23.102Z,98921.86
2022-08-03T05:48:50.446Z,98924.33
2022-08-03T05:51:17.809Z,98925.65
2022-08-03T05:53:45.462Z,98927.70
2022-08-03T05:56:16.015Z,98933.67
2022-08-03T05:58:53.869Z,98931.77
2022-08-03T06:01:24.291Z,98932.63
2022-08-03T06:03:52.497Z,98936.20
2022-08-03T06:06:19.760Z,98938.19
2022-08-03T06:08:47.098Z,98945.46
2022-08-03T06:11:14.595Z,98945.83
2022-08-03T06:13:43.532Z,98941.27
2022-08-03T06:16:10.911Z,98945.90
2022-08-03T06:18:38.974Z,98950.52
2022-08-03T06:21:13.966Z,98956.81
2022-08-03T06:23:54.725Z,98952.21
2022-08-03T06:26:26.895Z,98946.00
2022-08-03T06:28:55.377Z,98941.85
2022-08-03T06:31:33.210Z,98950.02
2022-08-03T06:34:31.186Z,98949.33
2022-08-03T06:36:52.573Z,98948.42
2022-08-03T06:39:20.381Z,98949.99
2022-08-03T06:41:47.631Z,98953.90
2022-08-03T06:44:16.398Z,98954.40
2022-08-03T06:46:46.339Z,98947.52
2022-08-03T06:49:14.004Z,98948.35
2022-08-03T06:52:06.018Z,98951.45
2022-08-03T06:54:32.570Z,98949.34
2022-08-03T06:57:00.439Z,98945.30
2022-08-03T07:00:08.545Z,98943.66
2022-08-03T07:02:19.003Z,98946.20
2022-08-03T07:04:48.609Z,98947.88
2022-08-03T07:07:16.071Z,98951.89
2022-08-03T07:09:57.611Z,98950.86
2022-08-03T07:12:26.728Z,98952.55
2022-08-03T07:14:58.187Z,98952.08
2022-08-03T07:17:28.222Z,98959.14
2022-08-03T07:19:55.469Z,98958.20
2022-08-03T07:22:22.766Z,98952.42
2022-08-03T07:24:50.286Z,98952.70
2022-08-03T07:27:17.540Z,98953.27
2022-08-03T07:29:44.812Z,98954.39
2022-08-03T07:32:12.140Z,98955.96
2022-08-03T07:34:39.604Z,98964.94
2022-08-03T07:37:06.855Z,98965.80
2022-08-03T07:39:36.669Z,98961.38
2022-08-03T07:42:04.636Z,98962.91
2022-08-03T07:44:31.889Z,98967.03
2022-08-03T07:46:59.240Z,98971.70
2022-08-03T07:49:31.061Z,98974.52
2022-08-03T07:52:17.292Z,98977.48
2022-08-03T07:54:44.964Z,98972.66
2022-08-03T07:57:12.277Z,98972.52
2022-08-03T07:59:56.879Z,98972.91
2022-08-03T08:02:27.541Z,98970.78
2022-08-03T08:04:55.572Z,98974.81
2022-08-03T08:07:23.645Z,98976.23
2022-08-03T08:09:53.152Z,98972.09
2022-08-03T08:12:20.684Z,98969.67
2022-08-03T08:14:48.268Z,98974.23
2022-08-03T08:17:15.529Z,98975.38
2022-08-03T08:19:51.426Z,98971.16
2022-08-03T08:22:29.947Z,98977.41
2022-08-03T08:25:01.036Z,98972.50
2022-08-03T08:27:29.014Z,98969.36
2022-08-03T08:30:19.549Z,98968.73
2022-08-03T08:32:47.692Z,98963.56
2022-08-03T08:35:15.132Z,98967.80
2022-08-03T08:37:43.654Z,98977.83
2022-08-03T08:40:20.997Z,98983.55
2022-08-03T08:42:58.008Z,98974.43
2022-08-03T08:45:26.855Z,98985.02
2022-08-03T08:47:59.638Z,98981.68
2022-08-03T08:50:28.548Z,98981.15
2022-08-03T08:52:56.318Z,98982.48
2022-08-03T08:55:24.026Z,98984.94
2022-08-03T08:57:54.094Z,98983.54
2022-08-03T09:00:21.960Z,98991.45
2022-08-03T09:02:49.320Z,98994.63
2022-08-03T09:05:18.432Z,98992.83
2022-08-03T09:07:46.674Z,98988.20
2022-08-03T09:10:14.986Z,98993.71
2022-08-03T09:12:43.319Z,98990.19
2022-08-03T09:15:33.025Z,98989.94
2022-08-03T09:18:01.487Z,98995.19
2022-08-03T09:20:34.182Z,98987.21
2022-08-03T09:23:19.165Z,98991.13
2022-08-03T09:25:51.832Z,98996.55
2022-08-03T09:28:59.736Z,98992.43
2022-08-03T09:31:06.711Z,98992.23
2022-08-03T09:33:36.164Z,98999.46
2022-08-03T09:36:03.884Z,98997.66
2022-08-03T09:38:31.334Z,99003.41
2022-08-03T09:41:00.644Z,98998.27
2022-08-03T09:43:29.065Z,98997.39
2022-08-03T09:46:04.842Z,98992.24
2022-08-03T09:48:33.641Z,98995.84
2022-08-03T09:51:14.207Z,99000.94
2022-08-03T09:53:57.114Z,99000.95
2022-08-03T09:56:44.234Z,99000.08
2022-08-03T09:59:12.334Z,99005.21
2022-08-03T10:01:42.122Z,99000.38
2022-08-03T10:04:15.237Z,98994.34
2022-08-03T10:06:43.815Z,99004.21
2022-08-03T10:09:16.187Z,98996.70
2022-08-03T10:11:44.421Z,98996.78
2022-08-03T10:14:19.585Z,99001.64
2022-08-03T10:16:47.787Z,99001.59
2022-08-03T10:19:15.987Z,99002.88
2022-08-03T10:21:58.357Z,98997.07
2022-08-03T10:24:27.670Z,98999.76
2022-08-03T10:27:03.221Z,99001.48
2022-08-03T10:29:30.461Z,99000.90
2022-08-03T10:31:59.157Z,99001.77
2022-08-03T10:34:27.828Z,99002.00
2022-08-03T10:36:57.744Z,99007.40
2022-08-03T10:39:29.744Z,99002.73
2022-08-03T10:41:59.968Z,99008.17
2022-08-03T10:44:34.245Z,99010.33
2022-08-03T10:47:02.161Z,99007.32
2022-08-03T10:49:34.347Z,99008.16
2022-08-03T10:52:12.924Z,99008.48
2022-08-03T10:55:07.819Z,99005.73
2022-08-03T10:57:52.550Z,99005.63
2022-08-03T11:00:27.735Z,99007.92
2022-08-03T11:03:01.803Z,99000.62
2022-08-03T11:05:32.548Z,99003.71
2022-08-03T11:08:20.246Z,98998.29
2022-08-03T11:10:48.452Z,98994.34
2022-08-03T11:13:17.351Z,98993.51
2022-08-03T11:15:47.653Z,98991.40
2022-08-03T11:18:16.255Z,98986.83
2022-08-03T11:20:59.601Z,98986.56
2022-08-03T11:24:04.661Z,98987.19
2022-08-03T11:26:34.666Z,98984.70
2022-08-03T11:29:28.722Z,98978.91
2022-08-03T11:31:56.696Z,98980.16
2022-08-03T11:34:24.999Z,98977.30
2022-08-03T11:37:23.179Z,98973.14
2022-08-03T11:39:53.359Z,98978.19
2022-08-03T11:42:25.047Z,98977.08
2022-08-03T11:45:01.591Z,98969.23
2022-08-03T11:47:29.805Z,98970.95
2022-08-03T11:50:00.587Z,98965.13
2022-08-03T11:52:28.992Z,98964.82
2022-08-03T11:54:57.522Z,98953.19
2022-08-03T11:59:01.960Z,98953.05
2022-08-03T12:00:32.627Z,98951.26
2022-08-03T12:03:02.693Z,98944.77
2022-08-03T12:05:51.827Z,98944.57
2022-08-03T12:08:36.163Z,98941.83
2022-08-03T12:11:07.812Z,98944.40
2022-08-03T12:14:45.072Z,98944.88
2022-08-03T12:16:36.526Z,98946.42
2022-08-03T12:19:07.219Z,98948.66
2022-08-03T12:21:34.524Z,98942.95
2022-08-03T12:24:04.533Z,98935.61
2022-08-03T12:26:59.317Z,98942.09
2022-08-03T12:29:27.907Z,98943.70
2022-08-03T12:31:55.978Z,98942.63
2022-08-03T12:34:23.711Z,98939.80
2022-08-03T12:36:52.703Z,98942.64
2022-08-03T12:39:24.143Z,98940.43
2022-08-03T12:41:53.808Z,98934.21
2022-08-03T12:44:30.470Z,98937.69
2022-08-03T12:47:01.505Z,98938.06
2022-08-03T12:49:30.510Z,98931.73
2022-08-03T12:52:01.744Z,98924.02
2022-08-03T12:54:35.142Z,98920.58
2022-08-03T12:57:03.317Z,98917.99
2022-08-03T12:59:40.646Z,98928.29
2022-08-03T13:02:23.590Z,98919.72
2022-08-03T13:04:52.221Z,98920.36
2022-08-03T13:07:20.306Z,98921.59
2022-08-03T13:09:57.471Z,98923.79
2022-08-03T13:12:26.563Z,98921.32
2022-08-03T13:14:56.785Z,98920.52
2022-08-03T13:17:24.464Z,98922.56
2022-08-03T13:19:52.024Z,98919.84
2022-08-03T13:22:27.758Z,98913.52
2022-08-03T13:24:58.695Z,98915.13
2022-08-03T13:28:05.339Z,98919.49
2022-08-03T13:30:13.890Z,98912.58
2022-08-03T13:32:48.510Z,98912.52
2022-08-03T13:35:16.408Z,98917.60
2022-08-03T13:37:44.147Z,98916.24
2022-08-03T13:40:16.145Z,98917.44
2022-08-03T13:42:44.585Z,98918.79
2022-08-03T13:45:12.146Z,98922.43
2022-08-03T13:47:39.413Z,98924.31
2022-08-03T13:50:07.264Z,98926.11
2022-08-03T13:52:35.471Z,98930.70
2022-08-03T13:55:04.111Z,98932.13
2022-08-03T13:58:04.378Z,98935.56
2022-08-03T14:00:27.680Z,98936.06
2022-08-03T14:03:13.173Z,98937.48
2022-08-03T14:05:42.402Z,98934.73
2022-08-03T14:08:10.263Z,98942.60
2022-08-03T14:10:40.984Z,98950.04
2022-08-03T14:13:08.964Z,98945.00
2022-08-03T14:15:38.371Z,98945.91
2022-08-03T14:18:15.397Z,98944.04
2022-08-03T14:20:50.158Z,98942.40
2022-08-03T14:23:21.630Z,98942.15
2022-08-03T14:25:52.370Z,98941.56
2022-08-03T14:28:22.918Z,98942.40
2022-08-03T14:30:51.542Z,98942.48
2022-08-03T14:33:18.825Z,98943.85
2022-08-03T14:35:46.196Z,98943.33
2022-08-03T14:38:13.749Z,98940.05
2022-08-03T14:40:41.335Z,98946.84
2022-08-03T14:43:08.659Z,98948.46
2022-08-03T14:45:35.906Z,98947.95
2022-08-03T14:50:32.949Z,98957.17
2022-08-03T14:50:55.707Z,98959.08
2022-08-03T14:53:23.080Z,98964.02
2022-08-03T14:55:51.873Z,98965.86
2022-08-03T14:58:23.405Z,98963.73
2022-08-03T15:00:51.674Z,98966.42
2022-08-03T15:03:26.204Z,98966.07
2022-08-03T15:05:54.541Z,98965.89
2022-08-03T15:08:22.964Z,98968.52
2022-08-03T15:10:51.033Z,98976.55
2022-08-03T15:13:18.431Z,98972.55
2022-08-03T15:15:45.842Z,98970.89
2022-08-03T15:18:13.299Z,98971.81
2022-08-03T15:20:44.964Z,98970.98
2022-08-03T15:23:14.700Z,98968.61
2022-08-03T15:26:28.639Z,98973.89
2022-08-03T15:28:31.191Z,98973.33
2022-08-03T15:30:58.584Z,98970.96
2022-08-03T15:33:25.896Z,98969.41
2022-08-03T15:35:53.662Z,98967.78
2022-08-03T15:38:25.785Z,98970.45
2022-08-03T15:40:54.982Z,98970.36
2022-08-03T15:43:23.377Z,98971.46
2022-08-03T15:46:19.046Z,98975.95
2022-08-03T15:48:38.759Z,98977.77
2022-08-03T15:51:06.368Z,98973.40
2022-08-03T15:53:34.024Z,98976.00
2022-08-03T15:56:05.176Z,98975.86
2022-08-03T15:59:04.664Z,98971.58
2022-08-03T16:01:22.653Z,98969.77
2022-08-03T16:03:50.062Z,98970.87
2022-08-03T16:06:17.474Z,98970.39
2022-08-03T16:08:56.957Z,98967.11
2022-08-03T16:11:24.317Z,98966.70
2022-08-03T16:14:13.691Z,98965.98
2022-08-03T16:16:41.660Z,98961.86
2022-08-03T16:19:09.010Z,98961.98
2022-08-03T16:21:47.929Z,98961.77
2022-08-03T16:24:17.445Z,98965.14
2022-08-03T16:26:47.253Z,98964.08
2022-08-03T16:29:22.385Z,98964.36
2022-08-03T16:31:52.336Z,98970.95
2022-08-03T16:34:20.580Z,98969.05
2022-08-03T16:36:48.044Z,98968.92
2022-08-03T16:39:15.522Z,98969.60
2022-08-03T16:41:54.102Z,98967.56
2022-08-03T16:44:30.188Z,98967.16
2022-08-03T16:46:58.243Z,98968.15
2022-08-03T16:49:54.781Z,98965.71
2022-08-03T16:52:13.391Z,98966.38
2022-08-03T16:54:40.970Z,98969.85
2022-08-03T16:57:10.606Z,98972.77
2022-08-03T16:59:39.421Z,98977.66
2022-08-03T17:02:10.563Z,98976.85
2022-08-03T17:04:40.084Z,98980.08
2022-08-03T17:07:08.869Z,98979.16
2022-08-03T17:09:38.286Z,98983.11
2022-08-03T17:12:10.892Z,98985.30
2022-08-03T17:14:38.512Z,98990.06
2022-08-03T17:17:08.998Z,98993.44
2022-08-03T17:19:47.149Z,98992.23
2022-08-03T17:22:18.650Z,98991.11
2022-08-03T17:24:47.995Z,98994.73
2022-08-03T17:28:42.190Z,98997.25
2022-08-03T17:30:09.897Z,99001.11
2022-08-03T17:32:42.331Z,99006.66
2022-08-03T17:35:10.639Z,99007.42
2022-08-03T17:37:57.677Z,99011.40
2022-08-03T17:40:25.582Z,99017.98
2022-08-03T17:42:53.305Z,99022.46
2022-08-03T17:45:20.767Z,99024.60
2022-08-03T17:47:57.475Z,99026.41
2022-08-03T17:50:32.192Z,99033.20
2022-08-03T17:53:07.655Z,99034.73
2022-08-03T17:55:56.821Z,99040.70
2022-08-03T17:59:02.361Z,99037.48
2022-08-03T18:02:22.322Z,99042.67
2022-08-03T18:05:16.092Z,99043.20
2022-08-03T18:08:01.644Z,99044.30
2022-08-03T18:10:35.583Z,99042.06
2022-08-03T18:13:19.828Z,99046.65
2022-08-03T18:15:49.738Z,99047.09
2022-08-03T18:18:32.513Z,99050.41
2022-08-03T18:21:06.743Z,99050.36
2022-08-03T18:23:37.734Z,99052.05
2022-08-03T18:26:11.839Z,99052.11
2022-08-03T18:28:39.900Z,99050.38
2022-08-03T18:31:10.123Z,99049.77
2022-08-03T18:34:16.703Z,99046.39
2022-08-03T18:36:30.506Z,99043.56
2022-08-03T18:39:03.231Z,99044.59
2022-08-03T18:41:34.737Z,99044.45
2022-08-03T18:44:08.661Z,99046.53
2022-08-03T18:47:16.879Z,99047.01
2022-08-03T18:50:20.195Z,99047.45
2022-08-03T18:52:53.782Z,99045.63
2022-08-03T18:55:33.655Z,99041.66
2022-08-03T18:58:24.983Z,99041.96
2022-08-03T19:00:58.655Z,99044.31
2022-08-03T19:03:43.376Z,99045.36
2022-08-03T19:06:19.411Z,99045.52
2022-08-03T19:08:50.102Z,99046.58
2022-08-03T19:11:27.868Z,99050.47
2022-08-03T19:13:57.016Z,99049.64
2022-08-03T19:16:48.007Z,99051.23
2022-08-03T19:19:17.627Z,99047.41
2022-08-03T19:21:46.420Z,99043.41
2022-08-03T19:24:16.732Z,99044.70
2022-08-03T19:26:48.587Z,99041.01
2022-08-03T19:29:21.041Z,99039.90
2022-08-03T19:31:58.872Z,99037.94
2022-08-03T19:34:26.625Z,99037.98
2022-08-03T19:36:55.312Z,99036.01
2022-08-03T19:39:27.803Z,99038.30
2022-08-03T19:41:56.664Z,99040.39
2022-08-03T19:44:26.524Z,99036.88
2022-08-03T19:47:16.912Z,99040.34
2022-08-03T19:50:05.145Z,99034.24
2022-08-03T19:52:35.769Z,99029.14
2022-08-03T19:55:07.612Z,99027.57
2022-08-03T19:57:40.515Z,99027.20
2022-08-03T20:00:12.679Z,99028.30
2022-08-03T20:02:43.526Z,99029.49
2022-08-03T20:05:15.475Z,99034.23
2022-08-03T20:07:48.240Z,99026.45
2022-08-03T20:10:17.150Z,99027.28
2022-08-03T20:12:45.795Z,99020.08
2022-08-03T20:15:13.459Z,99015.96
2022-08-03T20:17:57.125Z,99014.64
2022-08-03T20:20:31.503Z,99013.95
2022-08-03T20:23:00.657Z,99016.38
2022-08-03T20:25:38.350Z,99019.39
2022-08-03T20:28:15.402Z,99022.60
2022-08-03T20:30:47.208Z,99024.55
2022-08-03T20:33:18.210Z,99021.88
2022-08-03T20:35:49.200Z,99021.17
2022-08-03T20:38:20.137Z,99025.51
2022-08-03T20:40:54.856Z,99022.27
2022-08-03T20:43:22.284Z,99023.27
2022-08-03T20:45:59.799Z,99027.00
2022-08-03T20:48:39.939Z,99029.84
2022-08-03T20:51:19.692Z,99029.91
2022-08-03T20:53:59.840Z,99027.69
2022-08-03T20:56:35.895Z,99027.14
2022-08-03T20:59:05.622Z,99024.47
2022-08-03T21:01:36.514Z,99025.02
2022-08-03T21:04:22.339Z,99024.11
2022-08-03T21:06:56.729Z,99025.83
2022-08-03T21:09:40.117Z,99028.95
2022-08-03T21:12:15.254Z,99027.77
2022-08-03T21:14:53.533Z,99027.93
2022-08-03T21:17:39.183Z,99027.39
2022-08-03T21:20:09.243Z,99029.27
2022-08-03T21:22:38.037Z,99033.61
2022-08-03T21:25:08.617Z,99033.46
2022-08-03T21:27:36.614Z,99028.39
2022-08-03T21:30:08.944Z,99027.04
2022-08-03T21:32:40.465Z,99026.84
2022-08-03T21:35:13.275Z,99031.41
2022-08-03T21:37:41.230Z,99030.04
2022-08-03T21:40:11.091Z,99031.27
2022-08-03T21:42:39.856Z,99029.44
2022-08-03T21:45:09.698Z,99029.38
2022-08-03T21:47:39.828Z,99028.77
2022-08-03T21:50:10.032Z,99032.63
2022-08-03T21:52:46.002Z,99034.72
2022-08-03T21:55:18.512Z,99037.44
2022-08-03T21:57:52.200Z,99037.17
2022-08-03T22:00:20.833Z,99037.86
2022-08-03T22:02:55.539Z,99034.04
2022-08-03T22:05:29.106Z,99037.67
2022-08-03T22:08:14.107Z,99040.02
2022-08-03T22:10:45.249Z,99033.62
2022-08-03T22:13:20.597Z,99038.71
2022-08-03T22:16:04.507Z,99035.77
2022-08-03T22:18:31.749Z,99036.30
2022-08-03T22:20:59.032Z,99037.01
2022-08-03T22:23:26.450Z,99035.24
2022-08-03T22:25:53.708Z,99034.63
2022-08-03T22:28:21.074Z,99038.30
2022-08-03T22:33:35.019Z,99035.85
2022-08-03T22:36:02.277Z,99036.08
2022-08-03T22:38:30.055Z,99033.05
2022-08-03T22:40:57.389Z,99029.31
2022-08-03T22:43:25.774Z,99024.94
2022-08-03T22:46:09.922Z,99024.58
2022-08-03T22:48:41.221Z,99024.79
2022-08-03T22:51:09.261Z,99026.20
2022-08-03T22:53:36.733Z,99020.41
2022-08-03T22:56:04.459Z,99023.02
2022-08-03T22:58:34.068Z,99026.19
2022-08-03T23:01:07.357Z,99019.41
2022-08-03T23:03:59.264Z,99021.02
2022-08-03T23:06:23.682Z,99019.05
2022-08-03T23:08:50.926Z,99020.31
2022-08-03T23:11:18.692Z,99017.87
2022-08-03T23:13:47.706Z,99018.17
2022-08-03T23:16:15.045Z,99018.40
2022-08-03T23:18:56.011Z,99017.80
2022-08-03T23:21:53.749Z,99020.96
2022-08-03T23:24:24.580Z,99016.84
2022-08-03T23:26:57.704Z,99017.73
2022-08-03T23:29:25.101Z,99014.04
2022-08-03T23:31:52.619Z,99016.64
2022-08-03T23:34:38.627Z,99018.20
2022-08-03T23:37:06.073Z,99020.10
2022-08-03T23:39:34.917Z,99017.83
2022-08-03T23:42:03.349Z,99014.58
2022-08-03T23:44:30.903Z,99015.46
2022-08-03T23:46:58.274Z,99013.48
2022-08-03T23:49:25.605Z,99013.63
2022-08-03T23:52:29.618Z,99009.48
2022-08-03T23:55:18.792Z,99012.81
2022-08-03T23:57:54.000Z,99016.36
